createdAt,value
2022-12-26T00:00:16.623Z,5.92
2022-12-26T00:03:10.716Z,5.91
2022-12-26T00:05:44.645Z,5.91
2022-12-26T00:08:18.329Z,5.88
2022-12-26T00:10:51.899Z,5.87
2022-12-26T00:13:39.124Z,5.87
2022-12-26T00:16:17.654Z,5.89
2022-12-26T00:18:52.037Z,5.89
2022-12-26T00:21:29.445Z,5.90
2022-12-26T00:24:04.418Z,5.90
2022-12-26T00:26:38.326Z,5.90
2022-12-26T00:29:12.156Z,5.91
2022-12-26T00:31:47.324Z,5.91
2022-12-26T00:34:21.405Z,5.91
2022-12-26T00:36:56.550Z,5.92
2022-12-26T00:39:30.390Z,5.94
2022-12-26T00:42:03.935Z,5.98
2022-12-26T00:44:37.888Z,6.01
2022-12-26T00:47:11.576Z,6.03
2022-12-26T00:50:11.700Z,6.03
2022-12-26T00:52:39.340Z,6.02
2022-12-26T00:55:13.882Z,6.04
2022-12-26T00:57:47.664Z,6.07
2022-12-26T01:00:21.821Z,6.08
2022-12-26T01:02:55.611Z,6.05
2022-12-26T01:05:30.520Z,6.01
2022-12-26T01:08:19.648Z,6.02
2022-12-26T01:10:57.773Z,6.04
2022-12-26T01:13:31.480Z,6.03
2022-12-26T01:16:08.008Z,6.04
2022-12-26T01:18:42.000Z,6.01
2022-12-26T01:21:15.673Z,5.98
2022-12-26T01:23:49.162Z,5.97
2022-12-26T01:26:22.845Z,5.99
2022-12-26T01:28:56.928Z,5.99
2022-12-26T01:31:30.445Z,6.00
2022-12-26T01:34:04.386Z,6.02
2022-12-26T01:36:38.290Z,6.06
2022-12-26T01:39:11.680Z,6.08
2022-12-26T01:41:45.791Z,6.13
2022-12-26T01:45:00.810Z,6.17
2022-12-26T01:47:45.287Z,6.21
2022-12-26T01:50:29.654Z,6.23
2022-12-26T01:53:09.397Z,6.24
2022-12-26T01:55:45.502Z,6.23
2022-12-26T01:58:26.036Z,6.21
2022-12-26T02:01:00.847Z,6.17
2022-12-26T02:03:54.261Z,6.13
2022-12-26T02:06:28.416Z,6.10
2022-12-26T02:09:02.920Z,6.06
2022-12-26T02:11:43.299Z,6.05
2022-12-26T02:14:17.059Z,6.03
2022-12-26T02:16:51.243Z,5.99
2022-12-26T02:19:35.626Z,5.92
2022-12-26T02:22:38.010Z,5.85
2022-12-26T02:25:40.246Z,5.81
2022-12-26T02:28:37.203Z,5.73
2022-12-26T02:31:16.542Z,5.66
2022-12-26T02:34:04.701Z,5.64
2022-12-26T02:37:00.361Z,5.67
2022-12-26T02:39:49.126Z,5.68
2022-12-26T02:42:35.498Z,5.63
2022-12-26T02:45:35.174Z,5.60
2022-12-26T02:48:15.549Z,5.60
2022-12-26T02:51:20.488Z,5.58
2022-12-26T02:54:21.210Z,5.56
2022-12-26T02:57:17.413Z,5.57
2022-12-26T03:00:14.156Z,5.54
2022-12-26T03:03:11.492Z,5.56
2022-12-26T03:06:07.543Z,5.55
2022-12-26T03:09:02.568Z,5.55
2022-12-26T03:12:09.004Z,5.56
2022-12-26T03:14:49.361Z,5.49
2022-12-26T03:17:30.010Z,5.47
2022-12-26T03:20:08.036Z,5.46
2022-12-26T03:22:45.116Z,5.45
2022-12-26T03:25:40.512Z,5.46
2022-12-26T03:28:14.598Z,5.46
2022-12-26T03:30:51.418Z,5.51
2022-12-26T03:33:46.337Z,5.56
2022-12-26T03:36:33.475Z,5.60
2022-12-26T03:39:17.269Z,5.60
2022-12-26T03:42:19.389Z,5.58
2022-12-26T03:45:19.513Z,5.58
2022-12-26T03:48:20.336Z,5.58
2022-12-26T03:51:18.334Z,5.54
2022-12-26T03:54:14.729Z,5.50
2022-12-26T03:57:11.532Z,5.49
2022-12-26T04:00:08.340Z,5.47
2022-12-26T04:03:07.256Z,5.46
2022-12-26T04:06:02.506Z,5.44
2022-12-26T04:09:04.842Z,5.39
2022-12-26T04:11:59.217Z,5.35
2022-12-26T04:14:59.190Z,5.33
2022-12-26T04:17:58.589Z,5.39
2022-12-26T04:20:38.976Z,5.43
2022-12-26T04:23:36.581Z,5.44
2022-12-26T04:26:33.999Z,5.47
2022-12-26T04:29:26.122Z,5.46
2022-12-26T04:32:22.742Z,5.42
2022-12-26T04:35:21.704Z,5.44
2022-12-26T04:38:14.916Z,5.48
2022-12-26T04:41:14.121Z,5.52
2022-12-26T04:44:10.792Z,5.55
2022-12-26T04:46:47.206Z,5.57
2022-12-26T04:49:39.172Z,5.59
2022-12-26T04:52:14.945Z,5.57
2022-12-26T04:54:50.769Z,5.50
2022-12-26T04:57:25.962Z,5.46
2022-12-26T05:00:02.250Z,5.48
2022-12-26T05:02:53.559Z,5.47
2022-12-26T05:05:47.934Z,5.47
2022-12-26T05:08:45.225Z,5.48
2022-12-26T05:11:18.559Z,5.49
2022-12-26T05:13:52.996Z,5.47
2022-12-26T05:16:44.614Z,5.41
2022-12-26T05:19:37.164Z,5.40
2022-12-26T05:22:29.961Z,5.40
2022-12-26T05:25:21.349Z,5.42
2022-12-26T05:28:13.874Z,5.46
2022-12-26T05:30:47.469Z,5.43
2022-12-26T05:33:38.426Z,5.38
2022-12-26T05:36:12.535Z,5.35
2022-12-26T05:38:46.930Z,5.38
2022-12-26T05:41:20.715Z,5.38
2022-12-26T05:43:54.305Z,5.34
2022-12-26T05:46:28.272Z,5.35
2022-12-26T05:49:02.095Z,5.36
2022-12-26T05:51:35.952Z,5.39
2022-12-26T05:54:09.568Z,5.40
2022-12-26T05:56:48.975Z,5.41
2022-12-26T05:59:23.121Z,5.41
2022-12-26T06:01:56.572Z,5.37
2022-12-26T06:04:30.575Z,5.36
2022-12-26T06:07:03.803Z,5.38
2022-12-26T06:09:37.437Z,5.38
2022-12-26T06:12:10.980Z,5.39
2022-12-26T06:14:44.474Z,5.39
2022-12-26T06:17:17.768Z,5.42
2022-12-26T06:19:51.124Z,5.47
2022-12-26T06:22:24.492Z,5.49
2022-12-26T06:24:57.954Z,5.51
2022-12-26T06:27:31.357Z,5.50
2022-12-26T06:30:04.831Z,5.48
2022-12-26T06:32:38.622Z,5.48
2022-12-26T06:35:12.998Z,5.50
2022-12-26T06:37:46.707Z,5.52
2022-12-26T06:40:20.510Z,5.51
2022-12-26T06:42:53.835Z,5.51
2022-12-26T06:45:28.073Z,5.51
2022-12-26T06:48:01.524Z,5.50
2022-12-26T06:50:37.392Z,5.49
2022-12-26T06:53:10.900Z,5.49
2022-12-26T06:55:44.779Z,5.51
2022-12-26T06:58:18.995Z,5.56
2022-12-26T07:00:52.506Z,5.56
2022-12-26T07:03:26.749Z,5.54
2022-12-26T07:06:03.502Z,5.53
2022-12-26T07:08:37.267Z,5.52
2022-12-26T07:11:16.782Z,5.52
2022-12-26T07:13:50.197Z,5.48
2022-12-26T07:16:24.813Z,5.49
2022-12-26T07:18:59.497Z,5.49
2022-12-26T07:21:40.340Z,5.54
2022-12-26T07:24:20.813Z,5.58
2022-12-26T07:26:54.830Z,5.60
2022-12-26T07:29:28.630Z,5.61
2022-12-26T07:32:02.992Z,5.60
2022-12-26T07:34:36.561Z,5.58
2022-12-26T07:37:09.975Z,5.58
2022-12-26T07:39:43.573Z,5.60
2022-12-26T07:42:17.249Z,5.61
2022-12-26T07:44:50.997Z,5.66
2022-12-26T07:47:24.692Z,5.69
2022-12-26T07:49:59.109Z,5.73
2022-12-26T07:52:32.633Z,5.75
2022-12-26T07:55:06.566Z,5.77
2022-12-26T07:57:48.868Z,5.80
2022-12-26T08:00:24.477Z,5.80
2022-12-26T08:03:06.469Z,5.83
2022-12-26T08:05:41.713Z,5.85
2022-12-26T08:08:15.207Z,5.87
2022-12-26T08:10:49.061Z,5.87
2022-12-26T08:13:22.872Z,5.89
2022-12-26T08:15:57.160Z,5.89
2022-12-26T08:18:30.735Z,5.87
2022-12-26T08:21:04.728Z,5.85
2022-12-26T08:23:38.794Z,5.85
2022-12-26T08:26:21.057Z,5.91
2022-12-26T08:28:57.018Z,5.98
2022-12-26T08:31:30.431Z,6.02
2022-12-26T08:34:04.197Z,6.06
2022-12-26T08:36:38.512Z,6.09
2022-12-26T08:39:12.399Z,6.14
2022-12-26T08:41:46.197Z,6.20
2022-12-26T08:44:28.329Z,6.19
2022-12-26T08:47:02.952Z,6.19
2022-12-26T08:49:36.723Z,6.19
2022-12-26T08:52:10.652Z,6.22
2022-12-26T08:54:44.980Z,6.25
2022-12-26T08:57:19.161Z,6.28
2022-12-26T08:59:52.997Z,6.31
2022-12-26T09:02:27.462Z,6.32
2022-12-26T09:05:01.405Z,6.33
2022-12-26T09:07:35.784Z,6.36
2022-12-26T09:10:10.575Z,6.38
2022-12-26T09:12:44.193Z,6.41
2022-12-26T09:15:17.912Z,6.41
2022-12-26T09:17:51.427Z,6.41
2022-12-26T09:20:25.325Z,6.44
2022-12-26T09:22:58.869Z,6.48
2022-12-26T09:25:32.368Z,6.49
2022-12-26T09:28:05.990Z,6.53
2022-12-26T09:30:40.241Z,6.55
2022-12-26T09:33:13.573Z,6.56
2022-12-26T09:35:46.809Z,6.60
2022-12-26T09:38:20.985Z,6.65
2022-12-26T09:41:04.720Z,6.70
2022-12-26T09:43:54.109Z,6.79
2022-12-26T09:46:34.407Z,6.86
2022-12-26T09:49:12.235Z,6.90
2022-12-26T09:51:50.103Z,6.93
2022-12-26T09:54:31.552Z,6.98
2022-12-26T09:57:14.865Z,7.04
2022-12-26T09:59:56.493Z,7.12
2022-12-26T10:02:30.667Z,7.18
2022-12-26T10:05:04.419Z,7.25
2022-12-26T10:07:44.213Z,7.30
2022-12-26T10:10:26.560Z,7.37
2022-12-26T10:13:09.298Z,7.43
2022-12-26T10:15:49.394Z,7.51
2022-12-26T10:18:37.977Z,7.54
2022-12-26T10:21:17.105Z,7.58
2022-12-26T10:23:54.577Z,7.64
2022-12-26T10:26:33.680Z,7.70
2022-12-26T10:29:15.054Z,7.75
2022-12-26T10:31:52.369Z,7.80
2022-12-26T10:34:29.638Z,7.87
2022-12-26T10:37:07.755Z,7.93
2022-12-26T10:39:49.874Z,8.01
2022-12-26T10:42:29.829Z,8.05
2022-12-26T10:45:07.809Z,8.11
2022-12-26T10:47:44.146Z,8.19
2022-12-26T10:50:27.172Z,8.27
2022-12-26T10:53:05.429Z,8.38
2022-12-26T10:55:39.194Z,8.49
2022-12-26T10:58:19.983Z,8.57
2022-12-26T11:00:53.780Z,8.60
2022-12-26T11:03:27.920Z,8.66
2022-12-26T11:06:09.587Z,8.71
2022-12-26T11:08:49.730Z,8.77
2022-12-26T11:11:46.276Z,8.82
2022-12-26T11:14:44.896Z,8.85
2022-12-26T11:17:29.533Z,8.90
2022-12-26T11:20:28.469Z,8.95
2022-12-26T11:23:22.382Z,9.05
2022-12-26T11:25:57.614Z,9.17
2022-12-26T11:28:34.821Z,9.27
2022-12-26T11:31:25.409Z,9.33
2022-12-26T11:34:00.811Z,9.47
2022-12-26T11:36:35.033Z,9.57
2022-12-26T11:39:21.685Z,9.71
2022-12-26T11:41:56.965Z,9.86
2022-12-26T11:44:35.492Z,9.95
2022-12-26T11:47:15.745Z,10.02
2022-12-26T11:50:00.934Z,10.35
2022-12-26T11:52:44.936Z,11.05
2022-12-26T11:55:35.939Z,11.65
2022-12-26T11:58:23.523Z,11.73
2022-12-26T12:01:14.888Z,12.12
2022-12-26T12:03:50.537Z,12.59
2022-12-26T12:06:56.449Z,12.84
2022-12-26T12:09:38.141Z,12.73
2022-12-26T12:12:20.498Z,12.54
2022-12-26T12:15:10.349Z,12.35
2022-12-26T12:17:53.753Z,12.18
2022-12-26T12:20:38.048Z,12.07
2022-12-26T12:23:32.283Z,12.02
2022-12-26T12:26:12.249Z,11.98
2022-12-26T12:29:21.919Z,11.90
2022-12-26T12:32:17.590Z,11.79
2022-12-26T12:35:20.916Z,11.68
2022-12-26T12:38:22.218Z,11.57
2022-12-26T12:41:08.819Z,11.54
2022-12-26T12:43:50.803Z,11.53
2022-12-26T12:46:33.971Z,11.54
2022-12-26T12:49:44.487Z,11.54
2022-12-26T12:52:28.925Z,11.49
2022-12-26T12:55:21.530Z,11.46
2022-12-26T12:58:00.432Z,11.49
2022-12-26T13:00:42.557Z,11.56
2022-12-26T13:03:26.211Z,11.66
2022-12-26T13:06:08.163Z,11.75
2022-12-26T13:08:46.046Z,11.82
2022-12-26T13:11:27.615Z,11.87
2022-12-26T13:14:06.820Z,11.88
2022-12-26T13:16:45.320Z,11.87
2022-12-26T13:19:25.217Z,11.84
2022-12-26T13:22:04.441Z,11.84
2022-12-26T13:24:41.851Z,11.83
2022-12-26T13:27:21.363Z,11.84
2022-12-26T13:29:55.362Z,11.84
2022-12-26T13:32:30.917Z,11.83
2022-12-26T13:35:06.016Z,11.80
2022-12-26T13:38:00.309Z,11.79
2022-12-26T13:40:34.668Z,11.79
2022-12-26T13:43:36.401Z,11.78
2022-12-26T13:46:56.645Z,11.76
2022-12-26T13:49:38.403Z,11.70
2022-12-26T13:52:35.762Z,11.65
2022-12-26T13:55:43.231Z,11.62
2022-12-26T13:58:34.896Z,11.63
2022-12-26T14:01:19.622Z,11.64
2022-12-26T14:04:13.526Z,11.63
2022-12-26T14:07:03.297Z,11.61
2022-12-26T14:09:57.379Z,11.60
2022-12-26T14:12:49.978Z,11.57
2022-12-26T14:15:50.716Z,11.51
2022-12-26T14:18:37.298Z,11.47
2022-12-26T14:21:39.359Z,11.44
2022-12-26T14:24:32.889Z,11.44
2022-12-26T14:27:26.497Z,11.45
2022-12-26T14:30:09.597Z,11.46
2022-12-26T14:32:50.793Z,11.47
2022-12-26T14:35:34.214Z,11.46
2022-12-26T14:38:24.770Z,11.44
2022-12-26T14:41:09.992Z,11.43
2022-12-26T14:43:47.286Z,11.41
2022-12-26T14:46:51.996Z,11.42
2022-12-26T14:49:38.739Z,11.46
2022-12-26T14:52:41.120Z,11.46
2022-12-26T14:55:50.396Z,11.48
2022-12-26T14:58:31.386Z,11.50
2022-12-26T15:01:35.345Z,11.53
2022-12-26T15:04:17.189Z,11.55
2022-12-26T15:07:24.195Z,11.57
2022-12-26T15:10:31.313Z,11.58
2022-12-26T15:13:33.774Z,11.56
2022-12-26T15:16:22.051Z,11.57
2022-12-26T15:19:34.083Z,11.57
2022-12-26T15:22:40.687Z,11.61
2022-12-26T15:25:38.613Z,11.65
2022-12-26T15:28:37.771Z,11.64
2022-12-26T15:31:38.029Z,11.62
2022-12-26T15:34:32.798Z,11.60
2022-12-26T15:37:18.061Z,11.61
2022-12-26T15:39:57.864Z,11.61
2022-12-26T15:42:44.042Z,11.60
2022-12-26T15:45:31.177Z,11.54
2022-12-26T15:48:13.214Z,11.49
2022-12-26T15:50:59.111Z,11.48
2022-12-26T15:53:46.072Z,11.47
2022-12-26T15:56:51.580Z,11.48
2022-12-26T15:59:50.730Z,11.48
2022-12-26T16:02:41.045Z,11.44
2022-12-26T16:05:56.599Z,11.39
2022-12-26T16:09:03.838Z,11.38
2022-12-26T16:11:50.757Z,11.36
2022-12-26T16:14:33.810Z,11.34
2022-12-26T16:17:28.367Z,11.32
2022-12-26T16:20:02.133Z,11.30
2022-12-26T16:22:47.320Z,11.29
2022-12-26T16:25:24.744Z,11.29
2022-12-26T16:28:01.281Z,11.29
2022-12-26T16:30:38.735Z,11.28
2022-12-26T16:33:16.833Z,11.28
2022-12-26T16:35:57.530Z,11.28
2022-12-26T16:38:35.305Z,11.30
2022-12-26T16:41:23.849Z,11.32
2022-12-26T16:43:58.742Z,11.35
2022-12-26T16:46:34.856Z,11.38
2022-12-26T16:49:11.316Z,11.39
2022-12-26T16:51:52.816Z,11.39
2022-12-26T16:54:40.083Z,11.40
2022-12-26T16:57:20.917Z,11.41
2022-12-26T16:59:57.271Z,11.45
2022-12-26T17:02:34.909Z,11.50
2022-12-26T17:05:19.372Z,11.52
2022-12-26T17:07:55.664Z,11.48
2022-12-26T17:10:31.843Z,11.46
2022-12-26T17:13:09.166Z,11.45
2022-12-26T17:15:53.030Z,11.41
2022-12-26T17:18:47.251Z,11.38
2022-12-26T17:21:29.269Z,11.32
2022-12-26T17:24:26.339Z,11.29
2022-12-26T17:27:21.033Z,11.23
2022-12-26T17:30:00.924Z,11.17
2022-12-26T17:32:41.580Z,11.11
2022-12-26T17:35:18.550Z,11.08
2022-12-26T17:37:57.228Z,11.07
2022-12-26T17:40:32.120Z,11.04
2022-12-26T17:43:22.663Z,11.02
2022-12-26T17:45:56.904Z,10.98
2022-12-26T17:48:31.947Z,10.95
2022-12-26T17:51:08.371Z,10.97
2022-12-26T17:53:44.234Z,10.97
2022-12-26T17:56:21.288Z,10.96
2022-12-26T17:58:55.947Z,10.95
2022-12-26T18:01:30.673Z,10.95
2022-12-26T18:04:05.353Z,10.95
2022-12-26T18:06:41.093Z,10.95
2022-12-26T18:09:27.509Z,10.94
2022-12-26T18:12:01.569Z,10.96
2022-12-26T18:14:35.743Z,10.97
2022-12-26T18:17:09.659Z,10.99
2022-12-26T18:19:44.936Z,11.00
2022-12-26T18:22:21.655Z,11.04
2022-12-26T18:24:57.915Z,11.06
2022-12-26T18:27:34.248Z,11.06
2022-12-26T18:30:12.451Z,11.07
2022-12-26T18:32:47.731Z,11.06
2022-12-26T18:35:23.303Z,11.05
2022-12-26T18:37:57.604Z,11.05
2022-12-26T18:40:37.463Z,11.04
2022-12-26T18:43:13.279Z,11.04
2022-12-26T18:45:49.039Z,11.03
2022-12-26T18:48:23.290Z,11.03
2022-12-26T18:50:58.196Z,11.06
2022-12-26T18:53:32.375Z,11.05
2022-12-26T18:56:07.945Z,11.07
2022-12-26T18:58:42.115Z,11.10
2022-12-26T19:01:19.120Z,11.12
2022-12-26T19:03:54.245Z,11.13
2022-12-26T19:06:33.256Z,11.14
2022-12-26T19:09:07.907Z,11.17
2022-12-26T19:11:42.656Z,11.20
2022-12-26T19:14:23.019Z,11.23
2022-12-26T19:16:58.071Z,11.23
2022-12-26T19:19:33.186Z,11.18
2022-12-26T19:22:08.144Z,11.17
2022-12-26T19:24:42.470Z,11.19
2022-12-26T19:27:17.156Z,11.21
2022-12-26T19:29:51.438Z,11.25
2022-12-26T19:32:27.446Z,11.27
2022-12-26T19:35:03.235Z,11.26
2022-12-26T19:37:38.844Z,11.23
2022-12-26T19:40:21.268Z,11.21
2022-12-26T19:42:59.699Z,11.22
2022-12-26T19:45:33.948Z,11.23
2022-12-26T19:48:10.111Z,11.26
2022-12-26T19:50:45.483Z,11.29
2022-12-26T19:53:19.717Z,11.29
2022-12-26T19:55:54.288Z,11.29
2022-12-26T19:58:31.217Z,11.29
2022-12-26T20:01:12.050Z,11.27
2022-12-26T20:03:47.079Z,11.26
2022-12-26T20:06:24.807Z,11.22
2022-12-26T20:09:02.180Z,11.20
2022-12-26T20:11:40.987Z,11.20
2022-12-26T20:14:19.219Z,11.21
2022-12-26T20:17:05.560Z,11.21
2022-12-26T20:19:43.617Z,11.21
2022-12-26T20:22:19.840Z,11.19
2022-12-26T20:24:53.983Z,11.18
2022-12-26T20:27:29.272Z,11.18
2022-12-26T20:30:04.107Z,11.18
2022-12-26T20:32:38.819Z,11.16
2022-12-26T20:35:13.990Z,11.15
2022-12-26T20:37:48.283Z,11.15
2022-12-26T20:40:25.257Z,11.15
2022-12-26T20:43:00.802Z,11.16
2022-12-26T20:45:35.392Z,11.16
2022-12-26T20:48:09.931Z,11.16
2022-12-26T20:50:44.973Z,11.16
2022-12-26T20:53:22.613Z,11.17
2022-12-26T20:55:58.499Z,11.16
2022-12-26T20:58:34.799Z,11.15
2022-12-26T21:01:13.572Z,11.13
2022-12-26T21:03:48.701Z,11.11
2022-12-26T21:06:25.147Z,11.08
2022-12-26T21:09:01.113Z,11.05
2022-12-26T21:11:38.483Z,11.03
2022-12-26T21:14:16.440Z,11.01
2022-12-26T21:16:53.349Z,10.99
2022-12-26T21:19:31.012Z,10.99
2022-12-26T21:22:05.491Z,10.99
2022-12-26T21:24:40.000Z,10.99
2022-12-26T21:27:15.626Z,10.99
2022-12-26T21:29:50.050Z,11.01
2022-12-26T21:32:24.665Z,11.00
2022-12-26T21:34:58.578Z,10.98
2022-12-26T21:37:51.937Z,10.97
2022-12-26T21:40:28.083Z,10.98
2022-12-26T21:43:01.493Z,10.97
2022-12-26T21:45:35.935Z,10.95
2022-12-26T21:48:10.768Z,10.95
2022-12-26T21:50:47.409Z,10.97
2022-12-26T21:53:21.861Z,10.95
2022-12-26T21:55:55.432Z,10.93
2022-12-26T21:58:29.640Z,10.92
2022-12-26T22:01:03.713Z,10.89
2022-12-26T22:03:57.793Z,10.83
2022-12-26T22:06:32.785Z,10.80
2022-12-26T22:09:07.628Z,10.77
2022-12-26T22:11:59.468Z,10.73
2022-12-26T22:14:33.535Z,10.71
2022-12-26T22:17:07.239Z,10.66
2022-12-26T22:19:42.053Z,10.61
2022-12-26T22:22:15.663Z,10.58
2022-12-26T22:24:49.648Z,10.57
2022-12-26T22:27:23.827Z,10.57
2022-12-26T22:29:57.515Z,10.57
2022-12-26T22:32:31.526Z,10.56
2022-12-26T22:35:05.944Z,10.53
2022-12-26T22:37:39.916Z,10.48
2022-12-26T22:40:15.328Z,10.42
2022-12-26T22:42:49.275Z,10.42
2022-12-26T22:45:23.650Z,10.43
2022-12-26T22:47:57.332Z,10.43
2022-12-26T22:50:30.948Z,10.37
2022-12-26T22:53:05.052Z,10.29
2022-12-26T22:55:38.786Z,10.22
2022-12-26T22:58:12.642Z,10.16
2022-12-26T23:00:47.057Z,10.09
2022-12-26T23:03:21.043Z,10.03
2022-12-26T23:05:56.527Z,9.98
2022-12-26T23:08:31.653Z,9.93
2022-12-26T23:11:06.704Z,9.93
2022-12-26T23:13:42.295Z,9.95
2022-12-26T23:16:21.291Z,9.97
2022-12-26T23:19:17.336Z,10.01
2022-12-26T23:21:52.262Z,10.04
2022-12-26T23:24:27.720Z,10.07
2022-12-26T23:27:18.312Z,10.08
2022-12-26T23:30:11.000Z,10.08
2022-12-26T23:32:47.197Z,10.09
2022-12-26T23:35:22.866Z,10.11
2022-12-26T23:37:56.540Z,10.11
2022-12-26T23:40:30.007Z,10.11
2022-12-26T23:43:03.753Z,10.09
2022-12-26T23:45:37.429Z,10.09
2022-12-26T23:48:11.494Z,10.10
2022-12-26T23:50:45.747Z,10.12
2022-12-26T23:53:19.672Z,10.11
2022-12-26T23:55:53.880Z,10.14
2022-12-26T23:58:28.168Z,10.16
